岡山グライダークラブ活動状況掲示板あなたは無料カウンター人目の訪問者です

岡山グライダークラブ
岡山市浦安南町639-1 岡南飛行場
 使用機:シャイベ式 SF25C型 ファルケ   JA2330
      ヴァレンティン式17E型 タイフーン  JA2342
 練習日:毎日曜日  クラブルーム:電話 086-265-1810
この掲示板は岡山グライダークラブの活動状況をお知らせする掲示板です。
!!!この掲示板は投稿規制をしています。!!!
クラブ関連各種情報は 岡山グライダークラブクラブルーム      を       .
  ブリーフイング情報は  岡山グライダークラブブリーフィングルーム  をご覧下さい。 .
※写真はクリックすると拡大して見ることが出来ます。
岡南飛行場へのアクセス等は 岡南飛行場管理事務所 をご覧ください。
クラブの ホームページ ができました。

 
10月21日
by OGC at 2018/10/21(日) 22:55:30 No.20181021224821  削除コメント
1024 x 768 x 77,321バイト
No.1

10月21日
本日の参加者
  会員      15名
  その他      0名


@本日の様子




METAR
RJBK 210100Z VRB03KT SKC 17/08 Q1023 A3021
RKOB 210100Z 02005KT 280V070 9999 FEW025 17/08 Q1023
RJOT 210100Z VRB03KT 9999 FEW025 17/07 Q1023
RJOA 210100Z 11006KT 060V230 9999 FEW025 17/06 Q1023
TAF
RJOB 202307Z 2100/2206 04007KT 9999 FEW030
RJOT 202308Z 2100/2206 05007KT 9999 FEW030
RJOA 202306Z 2100/2206 15005KT 9999 FEW030

本日も穏やかな天候で訓練日和ということもあり、会員の集まりがよく賑やかな一日になりました。
ファルケはいつも通りの訓練フライト、タイフーンも社内検査、耐空検査が終了し通常訓練に移行しました。2機とも日没ギリギリまで大活躍でした。



解散    18:00

1番機  11:05離陸 撤収機  17:15着陸 

SF25C JA2330 ファルケ     09Flt.3h30min  
17E   JA2342 タイフーン    05Flt.2h05min  
合計                    14Flt.5h35min

    << 戻る || ホームページ || 最新の掲示板へ